Time;durP1;ratioP1;P1;durP2;ratioP2;P2;SDS_P1;SDS_P2;PMS_P1;PMS_P2;Temp;Humidity;BMP_temperature;BMP_pressure;BME280_temperature;BME280_humidity;BME280_pressure;Samples;Min_cycle;Max_cycle;Signal;HPM_P1;HPM_P2
2024/02/13 00:00:50;;;;;;;26.73;10.83;;;5.80;99.90;;;;;;5008253;28;20119;-68
2024/02/13 00:03:15;;;;;;;24.30;10.48;;;5.80;99.90;;;;;;5011335;28;20100;-70
2024/02/13 00:05:41;;;;;;;25.37;10.70;;;5.80;99.90;;;;;;5011087;28;20096;-69
2024/02/13 00:08:10;;;;;;;31.83;11.98;;;5.90;99.90;;;;;;5011602;28;20025;-70
2024/02/13 00:10:36;;;;;;;29.73;12.07;;;5.90;99.90;;;;;;5011882;28;20113;-70
2024/02/13 00:13:02;;;;;;;26.55;11.80;;;6.00;99.90;;;;;;4990750;28;20454;-71
2024/02/13 00:15:27;;;;;;;30.33;11.23;;;6.00;99.90;;;;;;5011125;28;20038;-71
2024/02/13 00:17:53;;;;;;;24.70;8.63;;;6.00;99.90;;;;;;5011130;28;20108;-70
2024/02/13 00:20:20;;;;;;;29.03;9.80;;;6.10;99.90;;;;;;5011402;28;20034;-71
2024/02/13 00:22:45;;;;;;;29.45;9.88;;;6.00;99.90;;;;;;5008062;28;20030;-71
2024/02/13 00:25:12;;;;;;;33.93;9.57;;;6.00;99.90;;;;;;5011441;28;20092;-67
2024/02/13 00:27:38;;;;;;;23.30;8.35;;;6.10;99.90;;;;;;5011485;28;20061;-71
2024/02/13 00:30:04;;;;;;;18.70;7.50;;;6.20;99.90;;;;;;5011357;28;20061;-67
2024/02/13 00:32:31;;;;;;;15.40;7.63;;;6.20;99.90;;;;;;5010817;28;20029;-67
2024/02/13 00:34:57;;;;;;;21.10;6.72;;;6.20;99.90;;;;;;5011096;28;20025;-68
2024/02/13 00:37:25;;;;;;;18.63;7.72;;;6.10;99.90;;;;;;5010846;28;20721;-69
2024/02/13 00:39:51;;;;;;;13.98;6.50;;;6.20;99.90;;;;;;4992972;28;20398;-68
2024/02/13 00:42:17;;;;;;;13.43;6.40;;;6.20;99.90;;;;;;5010741;28;20057;-68
2024/02/13 00:44:43;;;;;;;18.83;6.23;;;6.10;99.90;;;;;;5010900;28;20269;-67
2024/02/13 00:47:08;;;;;;;14.93;6.30;;;6.20;99.90;;;;;;4996502;28;20113;-68
2024/02/13 00:49:34;;;;;;;19.50;7.17;;;6.20;99.90;;;;;;4991774;28;20461;-68
2024/02/13 00:52:01;;;;;;;22.50;6.30;;;6.20;99.90;;;;;;4992081;28;20018;-69
2024/02/13 00:54:26;;;;;;;22.00;6.00;;;6.20;99.90;;;;;;4991209;28;20370;-69
2024/02/13 00:56:52;;;;;;;14.63;6.28;;;6.20;99.90;;;;;;4991306;28;20088;-70
2024/02/13 00:59:22;;;;;;;19.27;6.03;;;6.20;99.90;;;;;;4990776;28;20700;-68
2024/02/13 01:01:48;;;;;;;18.13;6.47;;;6.30;99.90;;;;;;4991070;28;20030;-68
2024/02/13 01:04:14;;;;;;;13.18;5.90;;;6.20;99.90;;;;;;4990946;28;20046;-68
2024/02/13 01:06:39;;;;;;;14.97;6.00;;;6.20;99.90;;;;;;4991153;28;20364;-70
2024/02/13 01:09:05;;;;;;;15.40;5.97;;;6.20;99.90;;;;;;4990342;28;20498;-69
2024/02/13 01:11:32;;;;;;;10.33;5.23;;;6.10;99.90;;;;;;4990655;28;20570;-70
2024/02/13 01:13:59;;;;;;;12.55;4.97;;;6.10;99.90;;;;;;4988256;28;20687;-68
2024/02/13 01:16:25;;;;;;;18.90;4.50;;;6.10;99.90;;;;;;4990385;28;20578;-68
2024/02/13 01:18:51;;;;;;;17.30;4.53;;;6.10;99.90;;;;;;4990284;28;20046;-68
2024/02/13 01:21:18;;;;;;;16.38;4.85;;;6.10;99.90;;;;;;4990446;28;20041;-68
2024/02/13 01:23:44;;;;;;;9.25;4.13;;;6.00;99.90;;;;;;4990359;28;20049;-70
2024/02/13 01:26:10;;;;;;;12.52;4.50;;;5.90;99.90;;;;;;4990986;28;20121;-70
2024/02/13 01:28:36;;;;;;;14.98;4.45;;;5.80;99.90;;;;;;4990079;28;20110;-70
2024/02/13 01:31:02;;;;;;;17.58;4.90;;;5.70;99.90;;;;;;4990088;28;20551;-71
2024/02/13 01:33:28;;;;;;;11.85;4.32;;;5.60;99.90;;;;;;4990521;28;20019;-70
2024/02/13 01:35:54;;;;;;;12.38;4.18;;;5.50;99.90;;;;;;4990241;28;20040;-70
2024/02/13 01:38:20;;;;;;;15.77;4.57;;;5.40;99.90;;;;;;4990034;28;20398;-68
2024/02/13 01:40:46;;;;;;;11.87;4.63;;;5.30;99.90;;;;;;4990166;28;20042;-69
2024/02/13 01:43:12;;;;;;;;;;;5.20;99.90;;;;;;4990755;28;20402;-68
2024/02/13 01:45:38;;;;;;;18.42;4.50;;;5.30;99.90;;;;;;4990266;28;19910;-71
2024/02/13 01:48:06;;;;;;;15.93;5.35;;;5.30;99.90;;;;;;4990281;28;20057;-68
2024/02/13 01:50:36;;;;;;;17.92;4.47;;;5.20;99.90;;;;;;4989740;28;20030;-71
2024/02/13 01:53:02;;;;;;;11.40;4.38;;;5.10;99.90;;;;;;4989439;28;20030;-68
2024/02/13 01:55:29;;;;;;;13.38;4.40;;;5.10;99.90;;;;;;4989242;28;20033;-70
2024/02/13 01:57:57;;;;;;;12.07;4.22;;;5.00;99.90;;;;;;4989357;28;20041;-70
2024/02/13 02:00:24;;;;;;;8.15;3.58;;;5.00;99.90;;;;;;4989832;28;20062;-70
2024/02/13 02:02:50;;;;;;;11.15;4.28;;;5.00;99.90;;;;;;4988644;28;20124;-70
2024/02/13 02:05:16;;;;;;;11.88;4.55;;;4.90;99.90;;;;;;5009753;28;20036;-69
2024/02/13 02:07:42;;;;;;;13.60;5.07;;;4.80;99.90;;;;;;4992131;28;20812;-69
2024/02/13 02:10:08;;;;;;;15.02;5.10;;;4.80;99.90;;;;;;5008939;28;20273;-69
2024/02/13 02:12:35;;;;;;;;;;;4.80;99.90;;;;;;5009398;28;20029;-70
2024/02/13 02:15:01;;;;;;;13.18;6.40;;;4.80;99.90;;;;;;5009117;28;19913;-70
2024/02/13 02:17:26;;;;;;;16.63;6.22;;;4.80;99.90;;;;;;5005875;28;20076;-71
2024/02/13 02:19:52;;;;;;;16.00;5.67;;;4.70;99.90;;;;;;5008934;28;20053;-70
2024/02/13 02:22:18;;;;;;;20.93;6.23;;;4.70;99.90;;;;;;5008736;28;20517;-71
2024/02/13 02:24:43;;;;;;;14.40;6.22;;;4.60;99.90;;;;;;5007902;28;20030;-69
2024/02/13 02:27:09;;;;;;;17.40;6.60;;;4.60;99.90;;;;;;5009070;28;20194;-71
2024/02/13 02:29:36;;;;;;;14.60;4.97;;;4.70;99.90;;;;;;5008854;28;20030;-67
2024/02/13 02:32:07;;;;;;;13.40;5.47;;;4.80;99.90;;;;;;5008128;28;20017;-67
2024/02/13 02:34:33;;;;;;;16.08;5.50;;;4.80;99.90;;;;;;5006803;28;20476;-71
2024/02/13 02:36:58;;;;;;;14.40;5.60;;;4.60;99.90;;;;;;5009274;28;20026;-68
2024/02/13 02:39:24;;;;;;;16.10;6.10;;;4.60;99.90;;;;;;5008909;28;20061;-68
2024/02/13 02:41:49;;;;;;;14.63;5.30;;;4.50;99.90;;;;;;5008725;28;20037;-68
2024/02/13 02:44:15;;;;;;;18.20;7.20;;;4.50;99.90;;;;;;5008352;28;20065;-68
2024/02/13 02:46:41;;;;;;;12.10;5.57;;;4.50;99.90;;;;;;5008913;28;20100;-70
2024/02/13 02:49:07;;;;;;;15.07;7.03;;;4.40;99.90;;;;;;5007925;28;20087;-68
2024/02/13 02:51:32;;;;;;;17.20;6.07;;;4.40;99.90;;;;;;4990837;28;20556;-68
2024/02/13 02:53:58;;;;;;;16.87;5.97;;;4.40;99.90;;;;;;5008325;28;20096;-68
2024/02/13 02:56:24;;;;;;;14.47;6.80;;;4.40;99.90;;;;;;5008328;28;20303;-68
2024/02/13 02:58:49;;;;;;;16.63;5.40;;;4.30;99.90;;;;;;5008206;28;20511;-68
2024/02/13 03:01:16;;;;;;;10.80;5.30;;;4.30;99.90;;;;;;5004648;28;20045;-72
2024/02/13 03:03:41;;;;;;;16.75;6.15;;;4.30;99.90;;;;;;4989106;28;20121;-69
2024/02/13 03:06:07;;;;;;;19.60;6.63;;;4.20;99.90;;;;;;4988620;28;20098;-71
2024/02/13 03:08:33;;;;;;;10.75;5.10;;;4.20;99.90;;;;;;4988558;28;20282;-67
2024/02/13 03:10:59;;;;;;;10.73;5.55;;;4.20;99.90;;;;;;4987455;28;20034;-68
2024/02/13 03:13:25;;;;;;;19.50;7.68;;;4.10;99.90;;;;;;4988264;28;20026;-70
2024/02/13 03:15:50;;;;;;;19.75;8.38;;;4.20;99.90;;;;;;4988749;28;20790;-68
2024/02/13 03:18:19;;;;;;;14.23;7.10;;;4.20;99.90;;;;;;4988481;28;20053;-67
2024/02/13 03:20:46;;;;;;;17.90;7.72;;;4.20;99.90;;;;;;4988729;28;20031;-70
2024/02/13 03:23:11;;;;;;;;;;;4.10;99.90;;;;;;4989223;28;20026;-71
2024/02/13 03:25:37;;;;;;;14.30;6.47;;;4.10;99.90;;;;;;4988157;28;19917;-70
2024/02/13 03:28:04;;;;;;;15.00;7.50;;;4.10;99.90;;;;;;4988596;28;20565;-70
2024/02/13 03:30:29;;;;;;;14.43;6.35;;;4.00;99.90;;;;;;4988360;28;20262;-70
2024/02/13 03:32:55;;;;;;;17.83;6.25;;;4.00;99.90;;;;;;4988379;28;20490;-71
2024/02/13 03:35:21;;;;;;;17.43;6.90;;;4.00;99.90;;;;;;4987771;28;20505;-71
2024/02/13 03:37:46;;;;;;;15.63;7.73;;;4.10;99.90;;;;;;4988198;28;20026;-68
2024/02/13 03:40:15;;;;;;;19.73;6.77;;;4.20;99.90;;;;;;4988435;28;20050;-71
2024/02/13 03:42:47;;;;;;;12.98;6.50;;;4.20;99.90;;;;;;4989072;28;20045;-68
2024/02/13 03:45:13;;;;;;;12.05;6.47;;;4.10;99.90;;;;;;4988574;28;20038;-68
2024/02/13 03:47:39;;;;;;;24.30;6.95;;;4.00;99.90;;;;;;4988510;28;20470;-68
2024/02/13 03:50:06;;;;;;;16.27;6.50;;;3.90;99.90;;;;;;4988560;28;20027;-68
2024/02/13 03:52:33;;;;;;;15.82;6.50;;;3.90;99.90;;;;;;4988447;28;20034;-68
2024/02/13 03:54:59;;;;;;;18.02;5.72;;;3.90;99.90;;;;;;4988184;28;20026;-68
2024/02/13 03:57:25;;;;;;;13.80;5.77;;;3.90;99.90;;;;;;4988052;28;20430;-68
2024/02/13 03:59:50;;;;;;;16.97;6.37;;;3.90;99.90;;;;;;4988185;28;20096;-67
2024/02/13 04:02:16;;;;;;;14.07;6.15;;;3.90;99.90;;;;;;4993917;28;20026;-67
2024/02/13 04:04:42;;;;;;;21.77;6.30;;;3.90;99.90;;;;;;4998285;28;20104;-71
2024/02/13 04:07:08;;;;;;;18.27;8.63;;;3.90;99.90;;;;;;4995314;28;20031;-70
2024/02/13 04:09:36;;;;;;;13.65;5.55;;;3.90;99.90;;;;;;4998019;28;20042;-67
2024/02/13 04:12:05;;;;;;;12.93;6.25;;;3.90;99.90;;;;;;4989254;28;20076;-67
2024/02/13 04:14:31;;;;;;;14.38;5.35;;;3.80;99.90;;;;;;4998283;28;20038;-67
2024/02/13 04:16:57;;;;;;;18.55;6.45;;;3.80;99.90;;;;;;4996808;28;20033;-68
2024/02/13 04:19:23;;;;;;;17.08;6.85;;;3.80;99.90;;;;;;4996749;28;20042;-69
2024/02/13 04:21:48;;;;;;;12.80;5.18;;;3.80;99.90;;;;;;4992207;28;20040;-68
2024/02/13 04:24:14;;;;;;;13.70;5.45;;;3.80;99.90;;;;;;4997173;28;20030;-70
2024/02/13 04:26:41;;;;;;;13.13;5.22;;;3.80;99.90;;;;;;4995785;28;20460;-70
2024/02/13 04:29:08;;;;;;;14.68;6.15;;;3.70;99.90;;;;;;4994224;28;20042;-70
2024/02/13 04:31:35;;;;;;;12.75;4.93;;;3.70;99.90;;;;;;4992721;28;20033;-68
2024/02/13 04:34:00;;;;;;;12.65;5.53;;;3.60;99.90;;;;;;4997710;28;20104;-67
2024/02/13 04:36:27;;;;;;;12.35;4.68;;;3.50;99.90;;;;;;4989786;28;20032;-67
2024/02/13 04:38:53;;;;;;;21.73;5.88;;;3.60;99.90;;;;;;4990733;28;20185;-70
2024/02/13 04:41:19;;;;;;;21.10;7.53;;;3.60;99.90;;;;;;5001625;28;20108;-67
2024/02/13 04:43:44;;;;;;;13.43;5.80;;;3.50;99.90;;;;;;4998114;28;20091;-70
2024/02/13 04:46:10;;;;;;;13.52;5.60;;;3.60;99.90;;;;;;4997079;28;20032;-69
2024/02/13 04:48:37;;;;;;;19.93;5.90;;;3.50;99.90;;;;;;4994377;28;20498;-67
2024/02/13 04:51:04;;;;;;;21.67;7.30;;;3.50;99.90;;;;;;4995291;28;20257;-70
2024/02/13 04:53:31;;;;;;;25.10;7.05;;;3.40;99.90;;;;;;5007450;28;20104;-69
2024/02/13 04:55:57;;;;;;;16.73;6.72;;;3.50;99.90;;;;;;5005436;28;20060;-69
2024/02/13 04:58:23;;;;;;;16.40;6.82;;;3.50;99.90;;;;;;4998433;28;20042;-70
2024/02/13 05:00:51;;;;;;;17.65;6.53;;;3.40;99.90;;;;;;5012019;28;20042;-71
2024/02/13 05:03:39;;;;;;;19.67;7.47;;;3.40;99.90;;;;;;5000917;28;20030;-69
2024/02/13 05:08:55;;;;;;;24.30;6.40;;;3.30;99.90;;;;;;4999781;28;20189;-68
2024/02/13 05:11:22;;;;;;;15.40;5.75;;;3.30;99.90;;;;;;4994420;28;20030;-70
2024/02/13 05:13:48;;;;;;;20.25;6.60;;;3.30;99.90;;;;;;5005949;28;20122;-70
2024/02/13 05:16:13;;;;;;;19.70;7.40;;;3.20;99.90;;;;;;4992208;28;20069;-70
2024/02/13 05:18:39;;;;;;;26.97;7.63;;;3.20;99.90;;;;;;4996428;28;20042;-71
2024/02/13 05:21:06;;;;;;;13.30;6.57;;;3.20;99.90;;;;;;5001689;28;20049;-68
2024/02/13 05:23:31;;;;;;;16.80;6.60;;;3.20;99.90;;;;;;5004663;28;20037;-69
2024/02/13 05:25:57;;;;;;;20.30;7.30;;;3.20;99.90;;;;;;4996943;28;20030;-70
2024/02/13 05:28:23;;;;;;;19.77;6.47;;;3.20;99.90;;;;;;4995827;28;20033;-70
2024/02/13 05:30:49;;;;;;;19.13;7.55;;;3.10;99.90;;;;;;4998897;28;20387;-68
2024/02/13 05:33:14;;;;;;;16.60;6.63;;;3.10;99.90;;;;;;5002035;28;20034;-69
2024/02/13 05:35:44;;;;;;;18.08;6.40;;;3.00;99.90;;;;;;5000101;28;20102;-69
2024/02/13 05:38:09;;;;;;;18.45;6.00;;;3.00;99.90;;;;;;4997265;28;20034;-69
2024/02/13 05:40:38;;;;;;;16.58;6.50;;;3.10;99.90;;;;;;4994720;28;20046;-69
2024/02/13 05:43:06;;;;;;;14.18;6.25;;;3.00;99.90;;;;;;5003185;28;20021;-67
2024/02/13 05:45:31;;;;;;;21.17;6.35;;;3.00;99.90;;;;;;5003817;28;20058;-69
2024/02/13 05:47:57;;;;;;;14.60;6.70;;;3.00;99.90;;;;;;4996362;28;20053;-71
2024/02/13 05:50:23;;;;;;;12.73;6.03;;;3.00;99.90;;;;;;4996273;28;20088;-70
2024/02/13 05:52:49;;;;;;;15.55;7.10;;;3.00;99.90;;;;;;5002999;28;20761;-68
2024/02/13 05:55:16;;;;;;;19.02;6.68;;;2.90;99.90;;;;;;5001232;28;20023;-70
2024/02/13 05:57:41;;;;;;;17.05;8.40;;;2.90;99.90;;;;;;4999352;28;20161;-69
2024/02/13 06:00:09;;;;;;;15.75;6.50;;;2.90;99.90;;;;;;5000973;28;20168;-69
2024/02/13 06:02:36;;;;;;;22.77;7.47;;;2.90;99.90;;;;;;5005162;28;20037;-68
2024/02/13 06:05:02;;;;;;;;;;;2.90;99.90;;;;;;4998148;28;20022;-68
2024/02/13 06:07:27;;;;;;;22.00;7.35;;;3.00;99.90;;;;;;5002075;28;19920;-68
2024/02/13 06:09:54;;;;;;;15.83;6.30;;;2.90;99.90;;;;;;5006140;28;20035;-71
2024/02/13 06:12:19;;;;;;;28.75;8.00;;;2.80;99.90;;;;;;5000923;28;20516;-69
2024/02/13 06:14:47;;;;;;;21.50;7.40;;;2.80;99.90;;;;;;4996684;28;20038;-69
2024/02/13 06:17:12;;;;;;;20.52;7.45;;;2.80;99.90;;;;;;4987188;28;20200;-68
2024/02/13 06:19:38;;;;;;;17.27;7.57;;;2.80;99.90;;;;;;5001144;28;20141;-71
2024/02/13 06:22:03;;;;;;;19.53;6.60;;;2.90;99.90;;;;;;5004347;28;20033;-71
2024/02/13 06:24:29;;;;;;;20.65;7.35;;;2.90;99.90;;;;;;5005806;28;20033;-71
2024/02/13 06:26:55;;;;;;;20.95;7.78;;;2.90;99.90;;;;;;5002456;28;20160;-73
2024/02/13 06:29:20;;;;;;;25.67;9.00;;;2.80;99.90;;;;;;5001501;28;20121;-72
2024/02/13 06:31:46;;;;;;;19.03;7.10;;;2.80;99.90;;;;;;4998671;28;20435;-72
2024/02/13 06:34:15;;;;;;;23.10;7.60;;;2.80;99.90;;;;;;5000493;28;20286;-73
2024/02/13 06:36:41;;;;;;;20.38;6.95;;;2.80;99.90;;;;;;4997312;28;20038;-73
2024/02/13 06:39:07;;;;;;;22.97;7.80;;;2.90;99.90;;;;;;5003558;28;20045;-72
2024/02/13 06:41:32;;;;;;;24.30;8.35;;;2.80;99.90;;;;;;4998032;28;20073;-72
2024/02/13 06:43:58;;;;;;;27.27;9.90;;;2.80;99.90;;;;;;4995590;28;20042;-72
2024/02/13 06:46:24;;;;;;;24.73;8.80;;;2.80;99.90;;;;;;5003784;28;20490;-71
2024/02/13 06:48:53;;;;;;;17.88;7.95;;;2.80;99.90;;;;;;4997088;28;20418;-69
2024/02/13 06:51:18;;;;;;;26.10;8.30;;;2.80;99.90;;;;;;5000156;28;20727;-71
2024/02/13 06:53:44;;;;;;;21.03;9.13;;;2.70;99.90;;;;;;5000508;28;20030;-70
2024/02/13 06:56:11;;;;;;;19.75;7.85;;;2.80;99.90;;;;;;4994762;28;20295;-70
2024/02/13 06:58:38;;;;;;;19.98;7.38;;;2.80;99.90;;;;;;4998938;28;20433;-70
2024/02/13 07:01:05;;;;;;;19.80;7.75;;;2.80;99.90;;;;;;4998614;28;20109;-70
2024/02/13 07:03:31;;;;;;;25.35;7.75;;;2.90;99.90;;;;;;5000014;28;20041;-69
2024/02/13 07:05:58;;;;;;;24.85;8.10;;;2.90;99.90;;;;;;5004994;28;20026;-71
2024/02/13 07:08:24;;;;;;;22.52;8.32;;;2.90;99.90;;;;;;5000307;28;20521;-70
2024/02/13 07:10:50;;;;;;;23.33;8.98;;;2.90;99.90;;;;;;4996959;28;20022;-71
2024/02/13 07:13:16;;;;;;;26.65;9.38;;;2.90;99.90;;;;;;4996560;28;20576;-70
2024/02/13 07:15:41;;;;;;;16.95;8.10;;;2.90;99.90;;;;;;4998355;28;20124;-70
2024/02/13 07:18:08;;;;;;;19.30;7.65;;;3.00;99.90;;;;;;4998565;28;20030;-70
2024/02/13 07:20:34;;;;;;;19.88;7.68;;;3.00;99.90;;;;;;4998957;28;20494;-70
2024/02/13 07:23:01;;;;;;;14.25;7.95;;;3.00;99.90;;;;;;4997478;28;20116;-69
2024/02/13 07:25:28;;;;;;;20.63;8.63;;;3.10;99.90;;;;;;4994067;28;20061;-72
2024/02/13 07:27:55;;;;;;;18.65;7.65;;;3.10;99.90;;;;;;5000666;28;20032;-74
2024/02/13 07:30:21;;;;;;;24.05;9.45;;;3.10;99.90;;;;;;4998862;28;20034;-69
2024/02/13 07:32:47;;;;;;;25.40;8.15;;;3.20;99.90;;;;;;4997578;28;20034;-68
2024/02/13 07:35:14;;;;;;;18.35;7.10;;;3.20;99.90;;;;;;4994824;28;20030;-68
2024/02/13 07:37:40;;;;;;;19.02;9.10;;;3.30;99.90;;;;;;4999697;28;20518;-68
2024/02/13 07:40:06;;;;;;;20.52;8.23;;;3.40;99.90;;;;;;5000549;28;20061;-68
2024/02/13 07:42:32;;;;;;;14.82;8.13;;;3.50;99.90;;;;;;4997969;28;20061;-68
2024/02/13 07:44:58;;;;;;;20.80;8.80;;;3.70;99.90;;;;;;4997153;28;20890;-67
2024/02/13 07:47:27;;;;;;;16.10;8.27;;;3.80;99.90;;;;;;5000132;28;20030;-67
2024/02/13 07:49:58;;;;;;;21.67;8.32;;;3.80;99.90;;;;;;4999550;28;20042;-66
2024/02/13 07:52:24;;;;;;;29.70;8.68;;;3.90;99.90;;;;;;5002608;28;20505;-67
2024/02/13 07:54:50;;;;;;;22.55;8.52;;;3.90;99.90;;;;;;4998081;28;20038;-69
2024/02/13 07:57:16;;;;;;;18.67;8.05;;;4.00;99.90;;;;;;5002360;28;20010;-67
2024/02/13 07:59:45;;;;;;;18.77;7.97;;;4.00;99.90;;;;;;4994307;28;20072;-68
2024/02/13 08:02:12;;;;;;;24.10;9.85;;;4.10;99.90;;;;;;4997157;28;20038;-74
2024/02/13 08:04:41;;;;;;;24.02;9.00;;;4.30;99.90;;;;;;4997879;28;20486;-70
2024/02/13 08:07:09;;;;;;;16.85;8.10;;;4.70;99.90;;;;;;4997699;28;20022;-70
2024/02/13 08:09:35;;;;;;;18.13;8.05;;;5.50;99.90;;;;;;4997964;28;20039;-70
2024/02/13 08:12:03;;;;;;;28.50;8.80;;;6.10;99.90;;;;;;4996026;28;20509;-69
2024/02/13 08:14:30;;;;;;;18.65;8.07;;;7.00;99.90;;;;;;4996250;28;20026;-71
2024/02/13 08:16:57;;;;;;;17.60;6.82;;;8.30;99.90;;;;;;5002036;28;20401;-71
2024/02/13 08:19:23;;;;;;;19.10;6.43;;;9.70;99.90;;;;;;4999888;28;20042;-67
2024/02/13 08:21:48;;;;;;;14.63;6.77;;;10.40;95.80;;;;;;4999715;28;20041;-68
2024/02/13 08:24:14;;;;;;;19.27;7.37;;;10.70;93.30;;;;;;5003650;28;20060;-68
2024/02/13 08:26:40;;;;;;;21.47;8.37;;;9.10;95.90;;;;;;4989248;28;20674;-69
2024/02/13 08:29:05;;;;;;;18.37;8.10;;;10.60;94.80;;;;;;5002095;28;20808;-71
2024/02/13 08:31:31;;;;;;;28.13;9.53;;;11.80;93.30;;;;;;5005654;28;20105;-71
2024/02/13 08:33:56;;;;;;;26.87;7.27;;;13.30;88.80;;;;;;5001495;28;20747;-71
2024/02/13 08:36:24;;;;;;;18.60;7.50;;;12.50;83.20;;;;;;4999131;28;20029;-71
2024/02/13 08:38:50;;;;;;;18.33;7.70;;;12.50;85.10;;;;;;4996169;28;20057;-70
2024/02/13 08:41:16;;;;;;;;;;;11.50;87.00;;;;;;4991032;28;20516;-70
2024/02/13 08:43:42;;;;;;;16.60;7.47;;;10.90;90.10;;;;;;4979321;28;19914;-69
2024/02/13 08:46:08;;;;;;;23.52;8.13;;;10.90;91.00;;;;;;4977938;28;20022;-69
2024/02/13 08:48:34;;;;;;;19.25;8.00;;;11.40;90.30;;;;;;4981938;28;20035;-71
2024/02/13 08:51:00;;;;;;;16.83;7.70;;;10.70;91.40;;;;;;4980024;28;20408;-69
2024/02/13 08:53:25;;;;;;;19.33;7.53;;;10.40;92.50;;;;;;4980784;28;20030;-71
2024/02/13 08:55:51;;;;;;;20.53;7.63;;;10.70;92.60;;;;;;4980541;28;20110;-69
2024/02/13 08:58:17;;;;;;;17.83;8.05;;;11.40;92.40;;;;;;4986633;28;20038;-67
2024/02/13 09:00:43;;;;;;;26.92;9.18;;;14.00;87.30;;;;;;4989578;28;20073;-68
2024/02/13 09:03:09;;;;;;;22.77;8.40;;;15.80;80.50;;;;;;4982638;28;20030;-70
2024/02/13 09:05:34;;;;;;;20.13;8.60;;;16.80;77.30;;;;;;4985515;28;20545;-71
2024/02/13 09:08:01;;;;;;;26.47;10.47;;;17.50;73.40;;;;;;4985012;28;20109;-72
2024/02/13 09:10:27;;;;;;;40.80;9.23;;;17.30;71.70;;;;;;4981389;28;20039;-69
2024/02/13 09:12:53;;;;;;;41.83;10.25;;;17.20;72.90;;;;;;4980957;28;20069;-69
2024/02/13 09:15:18;;;;;;;27.00;8.43;;;17.40;72.40;;;;;;4976882;28;20041;-69
2024/02/13 09:17:45;;;;;;;22.60;7.53;;;18.20;71.20;;;;;;4961523;28;20471;-72
2024/02/13 09:20:14;;;;;;;18.00;7.00;;;18.10;69.20;;;;;;4981750;28;20110;-71
2024/02/13 09:22:43;;;;;;;15.73;7.35;;;16.40;72.90;;;;;;4979797;28;20039;-67
2024/02/13 09:25:12;;;;;;;16.80;7.13;;;14.80;74.30;;;;;;4980436;28;20035;-67
2024/02/13 09:27:39;;;;;;;21.33;7.97;;;14.20;78.10;;;;;;4984618;28;20038;-68
2024/02/13 09:30:06;;;;;;;15.32;6.93;;;16.10;76.10;;;;;;4985713;28;20037;-67
2024/02/13 09:32:35;;;;;;;21.15;9.00;;;17.70;72.10;;;;;;4984652;28;20053;-68
2024/02/13 09:35:05;;;;;;;17.13;6.05;;;18.40;69.20;;;;;;4979873;28;20058;-69
2024/02/13 09:37:31;;;;;;;11.55;6.05;;;18.10;70.10;;;;;;4980006;28;20042;-72
2024/02/13 09:39:57;;;;;;;11.80;5.45;;;17.20;69.30;;;;;;4981692;28;20042;-71
2024/02/13 09:42:24;;;;;;;12.93;6.55;;;14.80;75.00;;;;;;5000647;28;20030;-68
2024/02/13 09:44:50;;;;;;;;;;;14.80;78.90;;;;;;4997693;28;20046;-69
2024/02/13 09:47:16;;;;;;;13.85;5.80;;;15.60;77.00;;;;;;5001515;28;19952;-71
2024/02/13 09:49:45;;;;;;;;;;;15.00;77.10;;;;;;4999991;28;20041;-72
2024/02/13 09:52:13;;;;;;;10.40;3.97;;;14.00;80.60;;;;;;4999140;28;19909;-72
2024/02/13 09:54:42;;;;;;;10.77;3.67;;;13.30;83.10;;;;;;4999863;28;20513;-72
2024/02/13 09:57:10;;;;;;;18.30;4.35;;;13.70;83.10;;;;;;4997210;28;20052;-71
2024/02/13 09:59:37;;;;;;;14.55;4.22;;;14.50;80.80;;;;;;5002135;28;20054;-70
2024/02/13 10:02:05;;;;;;;9.13;3.80;;;15.40;78.70;;;;;;4996021;28;20053;-72
2024/02/13 10:04:31;;;;;;;9.93;3.92;;;15.60;77.40;;;;;;5007239;28;20467;-72
2024/02/13 10:06:57;;;;;;;8.63;4.23;;;15.10;78.50;;;;;;4999952;28;20033;-71
2024/02/13 10:09:24;;;;;;;17.08;4.65;;;15.50;76.30;;;;;;5000467;28;20113;-72
2024/02/13 10:11:51;;;;;;;10.13;3.70;;;15.60;76.00;;;;;;5000603;28;20433;-72
2024/02/13 10:14:20;;;;;;;14.98;4.18;;;14.60;78.30;;;;;;5000869;28;20041;-68
2024/02/13 10:16:49;;;;;;;17.63;5.63;;;13.00;83.00;;;;;;4996315;28;20030;-71
2024/02/13 10:19:18;;;;;;;17.08;5.10;;;12.20;88.20;;;;;;5001863;28;20030;-72
2024/02/13 10:21:49;;;;;;;19.20;5.35;;;11.70;88.50;;;;;;4998634;28;20037;-69
2024/02/13 10:24:15;;;;;;;13.05;4.78;;;12.20;90.10;;;;;;5005722;28;20026;-70
2024/02/13 10:26:41;;;;;;;14.40;4.32;;;13.30;87.20;;;;;;4998353;28;20049;-69
2024/02/13 10:29:07;;;;;;;16.83;4.35;;;13.40;85.10;;;;;;4998538;28;20034;-71
2024/02/13 10:31:36;;;;;;;13.98;4.70;;;13.90;83.50;;;;;;5000965;28;20034;-72
2024/02/13 10:34:09;;;;;;;7.75;3.75;;;13.80;83.60;;;;;;5002253;28;20042;-71
2024/02/13 10:36:36;;;;;;;14.77;4.18;;;13.50;83.00;;;;;;4998058;28;20029;-71
2024/02/13 10:39:03;;;;;;;10.27;3.45;;;12.90;84.40;;;;;;4998891;28;20080;-72
2024/02/13 10:41:33;;;;;;;12.77;4.20;;;12.10;88.80;;;;;;5000370;28;20089;-72
2024/02/13 10:43:59;;;;;;;20.15;4.45;;;11.60;90.50;;;;;;4996918;28;20034;-73
2024/02/13 10:46:28;;;;;;;12.43;4.50;;;11.30;91.70;;;;;;4997292;28;20559;-71
2024/02/13 10:49:22;;;;;;;13.48;4.20;;;11.10;91.70;;;;;;5001740;28;20030;-71
2024/02/13 10:51:49;;;;;;;13.00;4.28;;;10.90;92.60;;;;;;5001277;28;20034;-70
2024/02/13 10:54:16;;;;;;;14.93;5.22;;;10.80;92.20;;;;;;4996051;28;20041;-72
2024/02/13 10:56:41;;;;;;;12.85;4.50;;;10.80;93.20;;;;;;5001696;28;20501;-69
2024/02/13 10:59:08;;;;;;;12.70;4.13;;;10.60;93.50;;;;;;5001471;28;20049;-68
2024/02/13 11:01:38;;;;;;;;;;;10.60;93.90;;;;;;4994690;28;20049;-68
2024/02/13 11:04:04;;;;;;;10.15;4.32;;;10.60;94.50;;;;;;5006096;28;19909;-69
2024/02/13 11:06:32;;;;;;;18.40;5.15;;;10.70;93.80;;;;;;4987772;28;20104;-68
2024/02/13 11:08:58;;;;;;;15.50;5.28;;;10.60;93.90;;;;;;5000585;28;20045;-69
2024/02/13 11:11:25;;;;;;;12.02;4.35;;;10.50;94.50;;;;;;4997166;28;20041;-68
2024/02/13 11:13:51;;;;;;;17.63;4.85;;;10.40;95.50;;;;;;4996542;28;20034;-69
2024/02/13 11:16:20;;;;;;;13.82;4.82;;;10.30;95.20;;;;;;4996386;28;20038;-71
2024/02/13 11:18:51;;;;;;;17.08;4.57;;;10.20;96.00;;;;;;4997678;28;20046;-73
2024/02/13 11:21:26;;;;;;;12.77;4.18;;;10.20;96.50;;;;;;4996581;28;20026;-70
2024/02/13 11:23:59;;;;;;;15.57;4.15;;;10.20;96.90;;;;;;4996306;28;20113;-68
2024/02/13 11:26:34;;;;;;;9.55;3.90;;;10.10;95.80;;;;;;5000213;28;20026;-68
2024/02/13 11:29:10;;;;;;;11.10;3.60;;;10.00;96.10;;;;;;4984233;28;20041;-70
2024/02/13 11:31:37;;;;;;;15.55;4.22;;;10.00;96.00;;;;;;4996729;28;20030;-71
2024/02/13 11:34:08;;;;;;;13.93;4.20;;;9.90;95.90;;;;;;4997933;28;20030;-68
2024/02/13 11:36:34;;;;;;;11.52;3.85;;;9.80;95.80;;;;;;4999182;28;20037;-71
2024/02/13 11:39:04;;;;;;;12.35;3.70;;;9.80;96.60;;;;;;5003977;28;20026;-71
2024/02/13 11:41:31;;;;;;;15.10;5.70;;;9.80;96.70;;;;;;4997878;28;20096;-71
2024/02/13 11:44:11;;;;;;;14.38;3.90;;;9.80;97.60;;;;;;4983984;28;20043;-71
2024/02/13 11:46:55;;;;;;;14.88;4.57;;;9.90;98.50;;;;;;4975764;28;20391;-71
2024/02/13 11:49:22;;;;;;;14.10;3.80;;;9.90;99.20;;;;;;4981440;28;20109;-70
2024/02/13 11:51:48;;;;;;;16.08;4.60;;;9.90;99.50;;;;;;4980385;28;20065;-70
2024/02/13 11:54:13;;;;;;;10.32;3.10;;;9.90;98.90;;;;;;4987680;28;20034;-68
2024/02/13 11:56:39;;;;;;;11.27;4.47;;;9.80;97.60;;;;;;4977574;28;20039;-67
2024/02/13 11:59:06;;;;;;;8.25;3.55;;;9.90;98.80;;;;;;4982666;28;20118;-70
2024/02/13 12:01:37;;;;;;;14.43;3.88;;;9.90;99.20;;;;;;4979605;28;20035;-68
2024/02/13 12:04:03;;;;;;;13.65;4.38;;;9.90;99.90;;;;;;4984318;28;20036;-68
2024/02/13 12:06:29;;;;;;;;;;;9.90;99.40;;;;;;4982281;28;20130;-70
2024/02/13 12:08:58;;;;;;;18.75;5.13;;;10.00;99.10;;;;;;4981301;28;20373;-69
2024/02/13 12:11:25;;;;;;;16.55;3.35;;;10.00;98.00;;;;;;4981863;28;20038;-70
2024/02/13 12:13:51;;;;;;;10.65;3.28;;;10.10;98.90;;;;;;4978196;28;20035;-68
2024/02/13 12:16:17;;;;;;;16.00;3.40;;;10.10;99.30;;;;;;4983081;28;20040;-70
2024/02/13 12:18:45;;;;;;;11.90;2.95;;;10.10;97.00;;;;;;4979405;28;20103;-69
2024/02/13 12:21:13;;;;;;;12.75;3.08;;;10.20;98.30;;;;;;4982047;28;20030;-67
2024/02/13 12:23:47;;;;;;;7.15;2.47;;;10.10;96.60;;;;;;4987324;28;20049;-71
2024/02/13 12:26:16;;;;;;;10.88;2.83;;;10.20;98.10;;;;;;4980131;28;20015;-67
2024/02/13 12:28:43;;;;;;;11.40;3.05;;;10.20;97.20;;;;;;4962582;28;20034;-70
2024/02/13 12:31:09;;;;;;;5.40;2.30;;;10.20;95.90;;;;;;4988482;28;20026;-67
2024/02/13 12:33:36;;;;;;;9.15;2.97;;;10.20;95.00;;;;;;4986666;28;20030;-70
2024/02/13 12:36:05;;;;;;;;;;;10.20;95.50;;;;;;4983522;28;20022;-68
2024/02/13 12:38:31;;;;;;;11.00;2.50;;;10.20;94.80;;;;;;4986921;28;19921;-70
2024/02/13 12:40:57;;;;;;;14.23;3.10;;;10.20;94.90;;;;;;4981002;28;20639;-70
2024/02/13 12:43:29;;;;;;;8.63;2.85;;;10.30;95.90;;;;;;4980644;28;20296;-68
2024/02/13 12:45:58;;;;;;;7.78;2.45;;;10.30;95.70;;;;;;4981341;28;20092;-68
2024/02/13 12:48:26;;;;;;;9.77;3.03;;;10.30;94.30;;;;;;4979185;28;20037;-68